createdAt,value
2023-01-11T00:02:20.524Z,11.35
2023-01-11T00:04:47.506Z,10.70
2023-01-11T00:07:13.873Z,10.45
2023-01-11T00:09:40.198Z,9.73
2023-01-11T00:12:08.155Z,8.35
2023-01-11T00:14:34.509Z,10.98
2023-01-11T00:17:00.833Z,8.48
2023-01-11T00:19:27.177Z,10.15
2023-01-11T00:21:53.475Z,9.73
2023-01-11T00:24:19.854Z,9.55
2023-01-11T00:26:46.272Z,8.70
2023-01-11T00:29:12.653Z,10.52
2023-01-11T00:31:39.035Z,10.55
2023-01-11T00:34:05.363Z,8.82
2023-01-11T00:36:31.847Z,10.35
2023-01-11T00:38:58.184Z,10.68
2023-01-11T00:41:43.397Z,9.55
2023-01-11T00:44:29.363Z,9.63
2023-01-11T00:47:14.251Z,9.20
2023-01-11T00:49:40.862Z,11.35
2023-01-11T00:52:09.093Z,8.15
2023-01-11T00:54:36.401Z,10.07
2023-01-11T00:57:02.815Z,11.18
2023-01-11T00:59:29.168Z,9.68
2023-01-11T01:01:55.485Z,11.05
2023-01-11T01:04:21.804Z,10.40
2023-01-11T01:06:48.269Z,9.80
2023-01-11T01:09:14.665Z,9.13
2023-01-11T01:11:41.060Z,8.80
2023-01-11T01:14:28.319Z,8.07
2023-01-11T01:16:56.284Z,6.70
2023-01-11T01:19:23.064Z,7.38
2023-01-11T01:21:49.963Z,7.72
2023-01-11T01:24:16.399Z,6.90
2023-01-11T01:26:42.713Z,7.00
2023-01-11T01:29:09.202Z,6.68
2023-01-11T01:31:35.575Z,6.97
2023-01-11T01:34:01.947Z,5.88
2023-01-11T01:36:28.325Z,6.40
2023-01-11T01:38:54.655Z,6.18
2023-01-11T01:41:20.999Z,4.88
2023-01-11T01:43:49.517Z,6.03
2023-01-11T01:46:16.313Z,5.43
2023-01-11T01:48:43.992Z,5.35
2023-01-11T01:51:13.152Z,5.35
2023-01-11T01:53:41.446Z,5.75
2023-01-11T01:56:15.714Z,5.47
2023-01-11T01:58:47.027Z,4.40
2023-01-11T02:01:32.840Z,4.20
2023-01-11T02:03:59.298Z,4.03
2023-01-11T02:06:25.814Z,4.80
2023-01-11T02:08:56.711Z,4.10
2023-01-11T02:11:31.997Z,4.30
2023-01-11T02:13:59.304Z,4.10
2023-01-11T02:16:25.850Z,4.43
2023-01-11T02:18:52.583Z,4.25
2023-01-11T02:21:40.531Z,4.13
2023-01-11T02:24:25.630Z,4.18
2023-01-11T02:27:01.213Z,3.65
2023-01-11T02:29:27.513Z,4.38
2023-01-11T02:31:56.640Z,3.47
2023-01-11T02:34:52.554Z,3.80
2023-01-11T02:37:33.174Z,3.42
2023-01-11T02:40:18.160Z,3.70
2023-01-11T02:43:10.969Z,3.15
2023-01-11T02:45:55.931Z,3.60
2023-01-11T02:48:22.341Z,3.63
2023-01-11T02:51:08.900Z,4.88
2023-01-11T02:53:54.644Z,4.90
2023-01-11T02:56:23.122Z,5.47
2023-01-11T02:58:50.901Z,5.32
2023-01-11T03:01:18.849Z,5.40
2023-01-11T03:03:45.203Z,5.13
2023-01-11T03:06:11.526Z,5.63
2023-01-11T03:08:53.839Z,4.72
2023-01-11T03:11:38.615Z,4.32
2023-01-11T03:14:12.041Z,4.50
2023-01-11T03:16:42.037Z,4.80
2023-01-11T03:19:11.089Z,5.60
2023-01-11T03:21:40.512Z,5.38
2023-01-11T03:24:15.781Z,5.05
2023-01-11T03:26:45.065Z,4.88
2023-01-11T03:29:14.207Z,4.65
2023-01-11T03:31:46.119Z,5.13
2023-01-11T03:34:15.431Z,5.30
2023-01-11T03:36:45.380Z,5.35
2023-01-11T03:39:11.658Z,5.05
2023-01-11T03:41:39.902Z,5.78
2023-01-11T03:44:07.724Z,5.10
2023-01-11T03:46:36.240Z,4.88
2023-01-11T03:49:09.130Z,4.00
2023-01-11T03:51:38.648Z,3.38
2023-01-11T03:54:06.216Z,2.63
2023-01-11T03:56:36.813Z,2.60
2023-01-11T03:59:03.365Z,3.05
2023-01-11T04:01:29.800Z,1.67
2023-01-11T04:03:56.209Z,1.70
2023-01-11T04:06:23.557Z,1.60
2023-01-11T04:08:49.871Z,1.70
2023-01-11T04:11:16.199Z,1.42
2023-01-11T04:13:42.495Z,2.10
2023-01-11T04:16:08.808Z,2.60
2023-01-11T04:18:35.308Z,3.10
2023-01-11T04:21:01.636Z,2.72
2023-01-11T04:23:27.931Z,2.75
2023-01-11T04:25:54.305Z,3.22
2023-01-11T04:28:20.613Z,3.45
2023-01-11T04:30:46.964Z,4.07
2023-01-11T04:33:14.383Z,5.05
2023-01-11T04:35:40.946Z,4.47
2023-01-11T04:38:07.269Z,4.93
2023-01-11T04:40:33.589Z,5.82
2023-01-11T04:43:02.152Z,5.55
2023-01-11T04:45:29.133Z,6.20
2023-01-11T04:47:56.463Z,6.57
2023-01-11T04:50:23.465Z,6.72
2023-01-11T04:52:49.923Z,7.40
2023-01-11T04:55:16.279Z,5.68
2023-01-11T04:57:45.748Z,5.28
2023-01-11T05:00:12.396Z,6.00
2023-01-11T05:02:39.052Z,6.43
2023-01-11T05:05:06.426Z,5.57
2023-01-11T05:07:32.979Z,6.30
2023-01-11T05:09:59.423Z,5.53
2023-01-11T05:12:25.762Z,6.93
2023-01-11T05:14:52.179Z,5.55
2023-01-11T05:17:18.515Z,6.22
2023-01-11T05:19:44.855Z,4.82
2023-01-11T05:22:11.206Z,5.20
2023-01-11T05:24:37.579Z,3.47
2023-01-11T05:27:04.477Z,4.47
2023-01-11T05:29:30.919Z,4.75
2023-01-11T05:31:57.360Z,4.03
2023-01-11T05:34:23.740Z,5.13
2023-01-11T05:36:50.266Z,3.60
2023-01-11T05:39:16.737Z,5.07
2023-01-11T05:41:43.116Z,4.15
2023-01-11T05:44:30.234Z,5.25
2023-01-11T05:46:56.623Z,4.85
2023-01-11T05:49:22.967Z,5.57
2023-01-11T05:51:49.399Z,4.13
2023-01-11T05:54:15.755Z,4.18
2023-01-11T05:56:45.132Z,5.13
2023-01-11T05:59:11.525Z,5.68
2023-01-11T06:01:38.184Z,5.07
2023-01-11T06:04:04.702Z,5.97
2023-01-11T06:06:31.756Z,4.97
2023-01-11T06:08:58.167Z,5.07
2023-01-11T06:11:24.455Z,5.45
2023-01-11T06:13:50.792Z,4.90
2023-01-11T06:16:17.970Z,4.13
2023-01-11T06:18:46.529Z,4.38
2023-01-11T06:21:13.106Z,5.00
2023-01-11T06:23:40.879Z,5.60
2023-01-11T06:26:09.056Z,4.93
2023-01-11T06:28:36.078Z,4.25
2023-01-11T06:31:02.740Z,5.53
2023-01-11T06:33:29.664Z,5.30
2023-01-11T06:35:56.544Z,4.63
2023-01-11T06:38:24.026Z,5.03
2023-01-11T06:40:54.533Z,5.22
2023-01-11T06:43:21.051Z,4.15
2023-01-11T06:45:47.480Z,5.55
2023-01-11T06:48:13.894Z,4.18
2023-01-11T06:50:40.205Z,4.03
2023-01-11T06:53:06.518Z,5.18
2023-01-11T06:55:32.902Z,3.63
2023-01-11T06:57:59.294Z,4.53
2023-01-11T07:00:25.755Z,4.10
2023-01-11T07:02:52.247Z,3.70
2023-01-11T07:05:19.506Z,4.40
2023-01-11T07:07:46.018Z,4.60
2023-01-11T07:10:14.421Z,3.67
2023-01-11T07:12:41.045Z,3.45
2023-01-11T07:15:08.529Z,2.80
2023-01-11T07:17:35.025Z,3.33
2023-01-11T07:20:01.432Z,2.83
2023-01-11T07:22:27.986Z,4.10
2023-01-11T07:24:54.361Z,3.65
2023-01-11T07:27:20.755Z,3.33
2023-01-11T07:29:47.398Z,3.67
2023-01-11T07:32:13.922Z,3.15
2023-01-11T07:34:40.397Z,3.25
2023-01-11T07:37:08.671Z,3.55
2023-01-11T07:39:55.029Z,3.35
2023-01-11T07:42:39.988Z,3.40
2023-01-11T07:45:06.648Z,3.35
2023-01-11T07:47:32.969Z,4.05
2023-01-11T07:49:59.263Z,3.40
2023-01-11T07:52:25.649Z,3.78
2023-01-11T07:54:52.038Z,3.95
2023-01-11T07:57:18.442Z,3.72
2023-01-11T07:59:44.746Z,4.07
2023-01-11T08:02:11.428Z,3.80
2023-01-11T08:04:37.820Z,3.50
2023-01-11T08:07:04.193Z,3.80
2023-01-11T08:09:30.568Z,4.15
2023-01-11T08:12:15.558Z,3.95
2023-01-11T08:14:42.011Z,3.45
2023-01-11T08:17:12.694Z,3.60
2023-01-11T08:19:39.341Z,4.00
2023-01-11T08:22:05.937Z,4.32
2023-01-11T08:24:32.335Z,3.97
2023-01-11T08:26:58.709Z,3.60
2023-01-11T08:29:25.220Z,4.53
2023-01-11T08:31:51.578Z,4.43
2023-01-11T08:34:17.981Z,3.67
2023-01-11T08:36:44.370Z,3.90
2023-01-11T08:39:11.117Z,5.60
2023-01-11T08:41:39.062Z,4.18
2023-01-11T08:44:05.721Z,3.97
2023-01-11T08:46:34.041Z,4.40
2023-01-11T08:49:01.273Z,4.03
2023-01-11T08:51:27.665Z,4.47
2023-01-11T08:53:54.019Z,3.83
2023-01-11T08:56:20.343Z,3.97
2023-01-11T08:58:46.884Z,4.32
2023-01-11T09:01:13.299Z,4.22
2023-01-11T09:03:39.809Z,3.70
2023-01-11T09:06:06.367Z,3.80
2023-01-11T09:08:32.767Z,3.83
2023-01-11T09:11:00.067Z,3.80
2023-01-11T09:13:26.869Z,5.00
2023-01-11T09:15:59.396Z,4.03
2023-01-11T09:18:26.898Z,4.75
2023-01-11T09:20:53.827Z,4.53
2023-01-11T09:23:20.188Z,4.22
2023-01-11T09:25:46.514Z,5.00
2023-01-11T09:28:12.902Z,4.15
2023-01-11T09:30:39.298Z,4.15
2023-01-11T09:33:06.969Z,4.78
2023-01-11T09:35:33.967Z,4.85
2023-01-11T09:38:01.764Z,6.15
2023-01-11T09:40:33.634Z,5.35
2023-01-11T09:43:03.886Z,3.30
2023-01-11T09:45:31.589Z,4.53
2023-01-11T09:48:04.771Z,4.13
2023-01-11T09:50:41.662Z,4.93
2023-01-11T09:53:09.676Z,4.28
2023-01-11T09:55:38.029Z,6.70
2023-01-11T09:58:14.251Z,4.57
2023-01-11T10:01:13.420Z,3.85
2023-01-11T10:03:39.912Z,4.07
2023-01-11T10:06:06.790Z,3.97
2023-01-11T10:18:27.371Z,4.35
2023-01-11T10:18:39.684Z,3.47
2023-01-11T10:20:24.462Z,4.55
2023-01-11T10:22:55.348Z,4.57
2023-01-11T10:25:26.612Z,3.83
2023-01-11T10:27:58.976Z,5.05
2023-01-11T10:30:31.678Z,5.53
2023-01-11T10:36:10.302Z,4.68
2023-01-11T10:38:41.066Z,3.40
2023-01-11T10:41:19.515Z,4.40
2023-01-11T10:43:47.833Z,4.35
2023-01-11T10:46:18.143Z,4.68
2023-01-11T10:48:45.590Z,5.15
2023-01-11T10:51:29.276Z,5.07
2023-01-11T10:54:00.989Z,5.15
2023-01-11T10:56:27.449Z,3.80
2023-01-11T10:59:13.094Z,4.38
2023-01-11T11:01:50.251Z,5.22
2023-01-11T11:04:28.591Z,5.45
2023-01-11T11:07:16.576Z,3.70
2023-01-11T11:09:47.598Z,4.53
2023-01-11T11:12:19.513Z,4.22
2023-01-11T11:14:57.797Z,4.57
2023-01-11T11:17:34.792Z,5.85
2023-01-11T11:20:05.031Z,3.30
2023-01-11T11:22:31.513Z,3.08
2023-01-11T11:25:04.923Z,4.13
2023-01-11T11:27:31.289Z,4.78
2023-01-11T11:29:57.604Z,4.63
2023-01-11T11:32:26.775Z,4.78
2023-01-11T11:34:53.363Z,4.22
2023-01-11T11:37:21.360Z,3.88
2023-01-11T11:39:51.740Z,4.50
2023-01-11T11:42:21.075Z,3.75
2023-01-11T11:45:05.515Z,3.78
2023-01-11T11:47:31.899Z,4.00
2023-01-11T11:50:18.847Z,3.67
2023-01-11T11:52:54.962Z,3.85
2023-01-11T11:55:26.507Z,3.45
2023-01-11T11:57:53.211Z,3.58
2023-01-11T12:00:19.584Z,4.38
2023-01-11T12:02:49.279Z,4.05
2023-01-11T12:05:15.893Z,3.20
2023-01-11T12:07:54.709Z,3.95
2023-01-11T12:10:26.489Z,3.67
2023-01-11T12:12:57.117Z,3.47
2023-01-11T12:15:28.821Z,3.60
2023-01-11T12:17:55.539Z,4.77
2023-01-11T12:20:21.891Z,4.22
2023-01-11T12:23:08.028Z,5.05
2023-01-11T12:25:38.184Z,3.70
2023-01-11T12:28:07.430Z,4.43
2023-01-11T12:30:36.646Z,4.13
2023-01-11T12:33:16.494Z,3.88
2023-01-11T12:35:52.328Z,3.45
2023-01-11T12:38:26.740Z,3.17
2023-01-11T12:41:01.649Z,4.07
2023-01-11T12:43:38.644Z,3.65
2023-01-11T12:46:23.151Z,5.50
2023-01-11T12:49:08.143Z,4.03
2023-01-11T12:51:34.457Z,3.90
2023-01-11T12:54:06.671Z,4.28
2023-01-11T12:56:42.059Z,4.07
2023-01-11T12:59:17.460Z,3.85
2023-01-11T13:01:58.835Z,3.15
2023-01-11T13:04:44.074Z,3.70
2023-01-11T13:07:19.738Z,3.67
2023-01-11T13:10:04.817Z,4.32
2023-01-11T13:12:37.450Z,3.42
2023-01-11T13:17:42.269Z,3.53
2023-01-11T13:20:20.674Z,3.05
2023-01-11T13:22:48.979Z,3.85
2023-01-11T13:25:17.414Z,3.25
2023-01-11T13:27:44.872Z,4.35
2023-01-11T13:30:12.981Z,4.07
2023-01-11T13:32:40.199Z,3.83
2023-01-11T13:35:13.624Z,3.15
2023-01-11T13:37:44.476Z,4.07
2023-01-11T13:40:19.096Z,3.75
2023-01-11T13:42:48.164Z,3.65
2023-01-11T13:45:21.278Z,3.85
2023-01-11T13:47:50.481Z,3.42
2023-01-11T13:50:22.874Z,3.08
2023-01-11T13:52:54.863Z,3.08
2023-01-11T13:55:26.736Z,3.60
2023-01-11T13:57:56.970Z,5.22
2023-01-11T14:00:26.448Z,4.30
2023-01-11T14:02:57.477Z,4.82
2023-01-11T14:05:24.050Z,3.75
2023-01-11T14:07:50.390Z,3.58
2023-01-11T14:10:19.801Z,3.67
2023-01-11T14:12:49.173Z,3.15
2023-01-11T14:15:26.538Z,4.88
2023-01-11T14:18:11.689Z,3.42
2023-01-11T14:20:45.294Z,3.55
2023-01-11T14:23:12.603Z,4.93
2023-01-11T14:25:57.025Z,4.07
2023-01-11T14:28:35.206Z,4.05
2023-01-11T14:31:07.890Z,4.05
2023-01-11T14:36:05.786Z,4.82
2023-01-11T14:39:07.411Z,5.32
2023-01-11T14:41:33.739Z,4.45
2023-01-11T14:44:09.153Z,4.15
2023-01-11T14:46:53.925Z,4.30
2023-01-11T14:49:38.831Z,4.53
2023-01-11T14:52:11.346Z,4.10
2023-01-11T14:54:39.756Z,4.85
2023-01-11T14:57:06.350Z,5.75
2023-01-11T14:59:34.285Z,4.15
2023-01-11T15:02:03.567Z,4.88
2023-01-11T15:04:49.015Z,4.28
2023-01-11T15:07:33.220Z,4.25
2023-01-11T15:10:00.333Z,4.18
2023-01-11T15:12:34.358Z,4.15
2023-01-11T15:15:02.961Z,4.45
2023-01-11T15:17:48.235Z,3.45
2023-01-11T15:20:16.645Z,3.80
2023-01-11T15:22:43.410Z,4.07
2023-01-11T15:25:18.726Z,3.72
2023-01-11T15:27:45.277Z,3.97
2023-01-11T15:30:34.540Z,4.35
2023-01-11T15:33:20.252Z,4.82
2023-01-11T15:35:55.514Z,5.25
2023-01-11T15:38:49.174Z,4.05
2023-01-11T15:41:36.202Z,4.78
2023-01-11T15:44:02.541Z,3.28
2023-01-11T15:46:53.376Z,5.85
2023-01-11T15:49:38.897Z,4.57
2023-01-11T15:52:23.752Z,4.70
2023-01-11T15:55:01.663Z,4.93
2023-01-11T15:57:39.779Z,3.70
2023-01-11T16:00:25.264Z,3.85
2023-01-11T16:03:00.688Z,5.50
2023-01-11T16:05:29.473Z,4.57
2023-01-11T16:08:10.243Z,3.97
2023-01-11T16:10:50.067Z,4.18
2023-01-11T16:13:28.614Z,3.63
2023-01-11T16:15:55.180Z,4.10
2023-01-11T16:18:24.389Z,4.20
2023-01-11T16:21:00.949Z,3.95
2023-01-11T16:23:27.611Z,3.95
2023-01-11T16:25:55.566Z,4.22
2023-01-11T16:28:22.140Z,3.80
2023-01-11T16:30:55.183Z,4.75
2023-01-11T16:33:22.796Z,4.07
2023-01-11T16:35:49.324Z,3.78
2023-01-11T16:38:17.670Z,4.15
2023-01-11T16:40:47.252Z,4.60
2023-01-11T16:43:27.773Z,4.18
2023-01-11T16:45:54.602Z,4.28
2023-01-11T16:48:20.974Z,3.38
2023-01-11T16:50:48.497Z,4.18
2023-01-11T16:53:16.184Z,2.88
2023-01-11T16:55:44.279Z,2.97
2023-01-11T16:58:36.875Z,3.70
2023-01-11T17:01:05.204Z,3.58
2023-01-11T17:03:33.076Z,3.22
2023-01-11T17:06:01.029Z,3.13
2023-01-11T17:08:28.915Z,3.42
2023-01-11T17:10:56.712Z,4.05
2023-01-11T17:13:54.722Z,4.35
2023-01-11T17:16:26.872Z,4.00
2023-01-11T17:18:54.748Z,3.25
2023-01-11T17:21:23.395Z,3.03
2023-01-11T17:23:50.472Z,3.25
2023-01-11T17:26:19.387Z,3.47
2023-01-11T17:28:46.791Z,3.60
2023-01-11T17:31:24.512Z,3.45
2023-01-11T17:34:08.579Z,4.00
2023-01-11T17:36:35.352Z,3.47
2023-01-11T17:39:02.652Z,3.95
2023-01-11T17:41:47.970Z,3.45
2023-01-11T17:44:34.905Z,2.75
2023-01-11T17:47:02.405Z,3.97
2023-01-11T17:49:28.790Z,3.20
2023-01-11T17:51:55.150Z,3.33
2023-01-11T17:54:22.045Z,3.22
2023-01-11T17:56:56.133Z,3.38
2023-01-11T17:59:25.358Z,4.55
2023-01-11T18:01:57.649Z,3.05
2023-01-11T18:04:24.828Z,3.47
2023-01-11T18:06:53.717Z,3.55
2023-01-11T18:09:34.034Z,3.10
2023-01-11T18:12:09.032Z,3.40
2023-01-11T18:14:39.984Z,2.42
2023-01-11T18:17:25.993Z,3.25
2023-01-11T18:19:52.471Z,3.50
2023-01-11T18:22:40.512Z,2.95
2023-01-11T18:25:23.339Z,2.72
2023-01-11T18:27:50.325Z,3.78
2023-01-11T18:30:31.879Z,3.47
2023-01-11T18:33:01.821Z,4.47
2023-01-11T18:35:28.739Z,3.53
2023-01-11T18:37:55.058Z,4.05
2023-01-11T18:40:21.627Z,3.08
2023-01-11T18:42:52.487Z,4.30
2023-01-11T18:45:20.142Z,4.45
2023-01-11T18:47:46.509Z,3.35
2023-01-11T18:50:13.430Z,4.25
2023-01-11T18:52:40.130Z,4.57
2023-01-11T18:55:07.042Z,3.80
2023-01-11T18:57:36.446Z,3.95
2023-01-11T19:00:03.951Z,4.03
2023-01-11T19:02:37.220Z,5.03
2023-01-11T19:05:04.707Z,4.00
2023-01-11T19:07:31.176Z,4.60
2023-01-11T19:09:59.280Z,4.43
2023-01-11T19:12:25.795Z,4.88
2023-01-11T19:14:52.167Z,4.47
2023-01-11T19:17:18.885Z,3.63
2023-01-11T19:19:45.263Z,3.75
2023-01-11T19:22:12.103Z,4.72
2023-01-11T19:24:39.536Z,3.10
2023-01-11T19:27:06.385Z,3.53
2023-01-11T19:29:32.873Z,3.10
2023-01-11T19:31:59.333Z,3.70
2023-01-11T19:34:25.794Z,4.50
2023-01-11T19:36:52.176Z,3.25
2023-01-11T19:39:18.609Z,2.85
2023-01-11T19:41:53.962Z,3.47
2023-01-11T19:44:33.666Z,3.17
2023-01-11T19:47:14.947Z,3.58
2023-01-11T19:49:41.922Z,4.35
2023-01-11T19:52:12.726Z,3.75
2023-01-11T19:54:43.035Z,4.00
2023-01-11T19:57:10.220Z,3.78
2023-01-11T19:59:36.623Z,3.90
2023-01-11T20:02:03.090Z,3.13
2023-01-11T20:04:29.506Z,2.90
2023-01-11T20:06:56.456Z,3.85
2023-01-11T20:09:22.847Z,2.83
2023-01-11T20:11:49.414Z,3.38
2023-01-11T20:14:16.772Z,3.50
2023-01-11T20:16:43.227Z,3.25
2023-01-11T20:19:10.001Z,2.95
2023-01-11T20:21:36.470Z,2.72
2023-01-11T20:24:03.057Z,4.13
2023-01-11T20:26:31.238Z,3.80
2023-01-11T20:28:58.001Z,3.17
2023-01-11T20:31:28.254Z,4.13
2023-01-11T20:33:55.588Z,3.63
2023-01-11T20:36:22.024Z,3.33
2023-01-11T20:38:48.430Z,3.88
2023-01-11T20:41:37.810Z,3.50
2023-01-11T20:44:05.091Z,5.20
2023-01-11T20:46:32.088Z,3.17
2023-01-11T20:48:58.764Z,4.00
2023-01-11T20:51:25.196Z,3.83
2023-01-11T20:53:51.611Z,3.42
2023-01-11T20:56:18.592Z,4.35
2023-01-11T20:58:48.387Z,3.95
2023-01-11T21:01:16.523Z,3.63
2023-01-11T21:03:42.910Z,3.55
2023-01-11T21:06:09.834Z,3.45
2023-01-11T21:08:36.514Z,4.93
2023-01-11T21:11:06.905Z,3.05
2023-01-11T21:13:33.246Z,4.07
2023-01-11T21:16:05.595Z,3.33
2023-01-11T21:18:31.940Z,3.67
2023-01-11T21:20:58.384Z,3.10
2023-01-11T21:23:24.739Z,3.55
2023-01-11T21:25:51.157Z,3.83
2023-01-11T21:28:17.524Z,3.83
2023-01-11T21:30:43.922Z,3.65
2023-01-11T21:33:10.328Z,4.15
2023-01-11T21:35:36.717Z,2.88
2023-01-11T21:38:03.079Z,3.47
2023-01-11T21:40:30.161Z,3.08
2023-01-11T21:42:56.592Z,2.80
2023-01-11T21:45:23.094Z,2.78
2023-01-11T21:47:49.425Z,3.30
2023-01-11T21:50:16.003Z,4.47
2023-01-11T21:52:42.447Z,2.88
2023-01-11T21:55:10.871Z,2.60
2023-01-11T21:57:37.236Z,3.53
2023-01-11T22:00:04.639Z,3.85
2023-01-11T22:02:38.500Z,3.58
2023-01-11T22:05:05.055Z,3.83
2023-01-11T22:07:34.155Z,3.78
2023-01-11T22:10:04.983Z,3.00
2023-01-11T22:12:32.656Z,3.63
2023-01-11T22:14:59.081Z,3.85
2023-01-11T22:17:25.381Z,4.43
2023-01-11T22:19:51.719Z,3.67
2023-01-11T22:22:18.021Z,2.17
2023-01-11T22:24:44.439Z,3.25
2023-01-11T22:27:10.962Z,3.65
2023-01-11T22:29:37.500Z,4.30
2023-01-11T22:32:04.312Z,2.95
2023-01-11T22:34:30.926Z,3.78
2023-01-11T22:36:57.297Z,3.50
2023-01-11T22:39:24.664Z,3.72
2023-01-11T22:41:51.400Z,4.05
2023-01-11T22:44:17.869Z,5.72
2023-01-11T22:46:44.299Z,3.92
2023-01-11T22:49:11.224Z,3.90
2023-01-11T22:51:37.624Z,3.53
2023-01-11T22:54:04.403Z,3.05
2023-01-11T22:56:30.827Z,3.70
2023-01-11T22:58:57.611Z,4.20
2023-01-11T23:01:28.110Z,3.78
2023-01-11T23:03:55.171Z,3.88
2023-01-11T23:06:23.399Z,2.67
2023-01-11T23:08:49.959Z,3.28
2023-01-11T23:11:37.799Z,3.67
2023-01-11T23:14:05.641Z,4.05
2023-01-11T23:16:32.083Z,3.17
2023-01-11T23:18:58.821Z,3.35
2023-01-11T23:21:25.259Z,3.97
2023-01-11T23:23:51.627Z,3.17
2023-01-11T23:26:18.169Z,3.35
2023-01-11T23:28:45.427Z,3.50
2023-01-11T23:31:19.241Z,4.32
2023-01-11T23:33:49.778Z,4.18
2023-01-11T23:36:17.036Z,4.03
2023-01-11T23:38:43.455Z,4.78
2023-01-11T23:41:32.574Z,3.25
2023-01-11T23:43:59.236Z,3.75
2023-01-11T23:46:44.880Z,3.97
2023-01-11T23:49:11.838Z,4.20
2023-01-11T23:51:38.248Z,4.32
2023-01-11T23:54:05.184Z,4.28
2023-01-11T23:56:31.901Z,3.45
2023-01-11T23:58:58.356Z,3.88
